Bellaire, Kansas
Current Conditions -  °F | °C
As of 1:55 PM on Sunday 25 Jan 2015 (Local Time) from KCNK Reporting Station
Overcast Overcast  
Wind Chill: 35°   Ceiling: 2700
Heat Index: 43°   Visibility: 10mi
Dew Point: 32°   Wind: 16mph
Humidity: 65%   Direction: 340°NNW
Pressure: 30.04"   Gusts: 28mph
Location:  39.8283°N, 98.5606°W
Report Text: KCNK 251955Z AUTO 34014G24KT 10SM OVC027 06/00 A3004 RMK AO2 PK WND 34030/1906 SLP176 T00610000
Loading
Personal Weather Stations






























Interactive Weather Map New forecast layout! Learn more

10-Day Weather Forecast

Advertisements
Track Severe Weather on mobile